Time;durP1;ratioP1;P1;durP2;ratioP2;P2;SDS_P1;SDS_P2;PMS_P1;PMS_P2;Temp;Humidity;BMP_temperature;BMP_pressure;BME280_temperature;BME280_humidity;BME280_pressure;Samples;Min_cycle;Max_cycle;Signal;HPM_P1;HPM_P2
2023/06/15 00:00:43;;;;;;;4.47;4.07;;;;;;;17.28;54.87;98016.28;5071914;28;20212;-77
2023/06/15 00:03:10;;;;;;;4.50;4.10;;;;;;;17.23;54.89;98017.69;5072511;28;20219;-77
2023/06/15 00:05:38;;;;;;;4.77;4.30;;;;;;;17.04;56.23;98023.16;5072651;28;20219;-78
2023/06/15 00:08:05;;;;;;;4.80;4.20;;;;;;;16.96;56.48;98026.56;5072591;28;20212;-78
2023/06/15 00:10:31;;;;;;;4.77;3.97;;;;;;;16.72;58.15;98034.28;5071707;28;20705;-77
2023/06/15 00:12:58;;;;;;;5.70;4.17;;;;;;;16.66;58.18;98029.53;5072149;28;20258;-78
2023/06/15 00:15:27;;;;;;;5.97;4.47;;;;;;;16.67;58.01;98039.22;5072483;28;20287;-78
2023/06/15 00:17:54;;;;;;;4.80;4.30;;;;;;;16.57;58.21;98032.22;5072405;28;20318;-78
2023/06/15 00:20:21;;;;;;;5.50;4.87;;;;;;;16.57;58.17;98035.72;5071470;28;20230;-78
2023/06/15 00:22:51;;;;;;;4.90;4.50;;;;;;;16.43;59.90;98054.00;5072041;28;20250;-78
2023/06/15 00:25:18;;;;;;;4.60;4.20;;;;;;;16.36;60.24;98056.41;5072224;28;20207;-78
2023/06/15 00:27:44;;;;;;;4.73;4.10;;;;;;;16.46;58.50;98043.06;5071927;28;20216;-77
2023/06/15 00:30:11;;;;;;;5.07;4.43;;;;;;;16.41;59.04;98040.81;5070692;28;20235;-77
2023/06/15 00:32:38;;;;;;;4.57;4.17;;;;;;;16.22;60.93;98056.81;5071465;28;20227;-78
2023/06/15 00:35:05;;;;;;;4.90;4.40;;;;;;;16.02;63.03;98064.16;5072115;28;20269;-77
2023/06/15 00:37:32;;;;;;;4.97;4.50;;;;;;;15.96;62.68;98062.91;5071884;28;20208;-78
2023/06/15 00:40:00;;;;;;;4.33;3.80;;;;;;;16.07;61.61;98046.75;5070799;28;20235;-78
2023/06/15 00:42:29;;;;;;;4.67;4.17;;;;;;;16.18;59.94;98044.78;5071704;28;20257;-78
2023/06/15 00:44:56;;;;;;;4.97;4.57;;;;;;;16.13;60.33;98045.34;5071650;28;20207;-78
2023/06/15 00:47:22;;;;;;;4.17;3.60;;;;;;;16.02;60.95;98056.97;5071807;28;20590;-78
2023/06/15 00:49:49;;;;;;;4.90;4.50;;;;;;;16.02;60.96;98048.97;5070689;28;20234;-78
2023/06/15 00:52:18;;;;;;;4.87;4.30;;;;;;;16.01;60.41;98054.47;5071732;28;20228;-77
2023/06/15 00:54:45;;;;;;;4.70;4.20;;;;;;;16.06;60.42;98054.91;5071331;28;20223;-77
2023/06/15 00:57:14;;;;;;;4.43;4.10;;;;;;;15.98;60.80;98057.41;5071711;28;20284;-78
2023/06/15 00:59:42;;;;;;;4.90;4.40;;;;;;;15.93;61.20;98056.97;5070047;28;20270;-78
2023/06/15 01:02:12;;;;;;;4.50;4.10;;;;;;;15.81;61.80;98056.31;5068832;28;20211;-78
2023/06/15 01:04:39;;;;;;;5.30;4.80;;;;;;;15.74;61.94;98059.66;5069053;28;20396;-78
2023/06/15 01:07:10;;;;;;;5.37;4.40;;;;;;;15.68;62.03;98060.22;5068678;28;20216;-77
2023/06/15 01:09:38;;;;;;;5.90;4.40;;;;;;;15.72;61.18;98056.28;5069939;28;20285;-77
2023/06/15 01:12:11;;;;;;;4.77;4.30;;;;;;;15.69;61.57;98056.56;5071285;28;20224;-77
2023/06/15 01:14:39;;;;;;;5.17;4.60;;;;;;;15.69;61.40;98056.56;5071221;28;20277;-78
2023/06/15 01:17:09;;;;;;;4.93;4.37;;;;;;;15.73;61.21;98055.31;5071245;28;20215;-77
2023/06/15 01:19:53;;;;;;;4.53;4.13;;;;;;;15.72;61.30;98056.28;5070451;28;20250;-77
2023/06/15 01:22:24;;;;;;;5.63;4.13;;;;;;;15.64;61.44;98051.66;5071172;28;20208;-77
2023/06/15 01:25:03;;;;;;;4.47;4.07;;;;;;;15.67;61.40;98054.06;5071310;28;20229;-78
2023/06/15 01:27:33;;;;;;;6.50;4.40;;;;;;;15.66;61.50;98063.03;5071063;28;20218;-77
2023/06/15 01:30:00;;;;;;;5.00;4.50;;;;;;;15.59;61.60;98055.72;5069966;28;20871;-77
2023/06/15 01:32:27;;;;;;;5.27;4.30;;;;;;;15.61;61.76;98053.75;5070891;28;20231;-77
2023/06/15 01:34:54;;;;;;;4.80;4.40;;;;;;;15.46;62.96;98063.16;5071194;28;20204;-77
2023/06/15 01:37:21;;;;;;;4.37;3.97;;;;;;;15.32;64.78;98060.81;5070951;28;20207;-78
2023/06/15 01:39:47;;;;;;;5.10;4.60;;;;;;;15.29;64.20;98061.09;5070063;28;20681;-77
2023/06/15 01:42:15;;;;;;;4.70;4.30;;;;;;;15.27;63.79;98060.41;5070854;28;20208;-77
2023/06/15 01:44:44;;;;;;;4.60;4.20;;;;;;;15.23;64.24;98054.53;5070698;28;20211;-77
2023/06/15 01:47:11;;;;;;;4.87;3.90;;;;;;;15.20;65.06;98059.25;5071183;28;20203;-77
2023/06/15 01:49:38;;;;;;;4.43;4.03;;;;;;;15.17;65.70;98059.53;5069994;28;20709;-77
2023/06/15 01:52:05;;;;;;;4.57;3.90;;;;;;;15.14;66.07;98059.78;5070714;28;20235;-78
2023/06/15 01:54:32;;;;;;;4.20;3.90;;;;;;;15.10;65.95;98058.41;5070834;28;20269;-78
2023/06/15 01:56:59;;;;;;;4.70;4.30;;;;;;;15.09;66.39;98062.88;5070837;28;20211;-78
2023/06/15 01:59:26;;;;;;;4.87;4.43;;;;;;;15.15;65.11;98051.69;5069852;28;20735;-78
2023/06/15 02:01:53;;;;;;;4.90;4.40;;;;;;;15.23;63.83;98053.66;5070944;28;20542;-78
2023/06/15 02:04:20;;;;;;;5.30;4.50;;;;;;;15.31;63.50;98051.16;5071055;28;20270;-78
2023/06/15 02:06:46;;;;;;;5.00;4.50;;;;;;;15.39;63.03;98048.69;5070820;28;20329;-78
2023/06/15 02:09:13;;;;;;;5.47;4.47;;;;;;;15.48;62.00;98045.19;5069988;28;20223;-78
2023/06/15 02:11:41;;;;;;;4.70;4.30;;;;;;;15.50;62.06;98049.41;5070482;28;20211;-78
2023/06/15 02:14:09;;;;;;;4.67;4.10;;;;;;;15.38;62.59;98052.31;5070859;28;20206;-78
2023/06/15 02:16:36;;;;;;;6.87;4.63;;;;;;;15.22;63.87;98052.00;5070745;28;20218;-78
2023/06/15 02:19:04;;;;;;;4.90;4.40;;;;;;;15.10;65.63;98053.06;5070378;28;20223;-78
2023/06/15 02:21:31;;;;;;;4.63;4.20;;;;;;;14.99;66.22;98050.50;5070020;28;20682;-78
2023/06/15 02:23:57;;;;;;;4.60;4.20;;;;;;;14.88;67.40;98069.25;5070582;28;20203;-78
2023/06/15 02:26:24;;;;;;;4.57;4.17;;;;;;;14.85;67.92;98069.53;5070548;28;20212;-78
2023/06/15 02:28:50;;;;;;;4.93;4.40;;;;;;;14.82;67.71;98056.47;5070485;28;20227;-78
2023/06/15 02:31:17;;;;;;;4.80;4.40;;;;;;;14.80;67.69;98056.59;5070067;28;20294;-78
2023/06/15 02:33:43;;;;;;;4.57;4.20;;;;;;;14.73;68.71;98066.09;5070531;28;20250;-78
2023/06/15 02:36:19;;;;;;;5.00;4.50;;;;;;;14.73;68.50;98070.59;5070406;28;20214;-78
2023/06/15 02:41:21;;;;;;;6.30;4.50;;;;;;;14.80;68.56;98061.09;5048280;28;20223;-89
2023/06/15 02:43:47;;;;;;;6.03;4.30;;;;;;;14.76;68.68;98055.19;5050727;28;20214;-90
2023/06/15 02:46:14;;;;;;;4.77;4.30;;;;;;;14.73;69.65;98070.59;5050727;28;20212;-89
2023/06/15 02:48:41;;;;;;;5.60;4.23;;;;;;;14.68;70.10;98078.13;5050549;28;20208;-90
2023/06/15 02:51:07;;;;;;;5.10;4.33;;;;;;;14.62;70.88;98070.66;5049741;28;20224;-89
2023/06/15 02:53:35;;;;;;;4.87;4.37;;;;;;;14.54;71.78;98073.16;5050238;28;20250;-90
2023/06/15 02:56:03;;;;;;;4.90;4.37;;;;;;;14.51;72.10;98082.22;5054187;28;20628;-89
2023/06/15 02:58:32;;;;;;;5.67;4.43;;;;;;;14.47;72.26;98080.81;5053949;28;20265;-90
2023/06/15 03:01:00;;;;;;;4.70;4.30;;;;;;;14.47;72.98;98075.47;5052933;28;20224;-89
2023/06/15 03:03:27;;;;;;;4.63;4.23;;;;;;;14.48;73.37;98081.66;5053712;28;20208;-89
2023/06/15 03:05:54;;;;;;;5.13;4.63;;;;;;;14.46;73.12;98078.25;5053967;28;20642;-89
2023/06/15 03:08:23;;;;;;;4.60;4.20;;;;;;;14.38;72.64;98080.75;5053504;28;20212;-89
2023/06/15 03:10:51;;;;;;;6.20;4.90;;;;;;;14.36;73.36;98083.53;5053159;28;20232;-89
2023/06/15 03:13:17;;;;;;;5.17;4.40;;;;;;;14.42;73.16;98075.03;5053720;28;20239;-89
2023/06/15 03:15:44;;;;;;;5.33;4.93;;;;;;;14.47;72.04;98077.28;5053782;28;20208;-89
2023/06/15 03:18:11;;;;;;;5.13;4.63;;;;;;;14.54;72.33;98083.78;5054044;28;20208;-89
2023/06/15 03:20:43;;;;;;;4.97;4.53;;;;;;;14.60;72.72;98096.56;5052899;28;20274;-89
2023/06/15 03:23:10;;;;;;;5.70;4.80;;;;;;;14.71;73.13;98083.16;5053821;28;20204;-89
2023/06/15 03:25:36;;;;;;;5.57;4.60;;;;;;;14.78;73.25;98087.00;5053646;28;20251;-89
2023/06/15 03:28:04;;;;;;;5.23;4.70;;;;;;;14.90;73.48;98091.25;5053868;28;20223;-89
2023/06/15 03:30:31;;;;;;;5.10;4.53;;;;;;;14.97;72.32;98087.06;5053048;28;20232;-89
2023/06/15 03:32:59;;;;;;;5.30;4.80;;;;;;;15.07;70.68;98079.94;5053813;28;20283;-89
2023/06/15 03:35:26;;;;;;;5.30;4.80;;;;;;;15.17;70.63;98088.81;5053494;28;20290;-89
2023/06/15 03:37:53;;;;;;;5.13;4.63;;;;;;;15.25;70.97;98088.97;5053546;28;20580;-89
2023/06/15 03:40:19;;;;;;;5.37;4.87;;;;;;;15.31;72.16;98093.75;5052530;28;20251;-90
2023/06/15 03:42:46;;;;;;;5.50;4.47;;;;;;;15.33;71.32;98097.19;5053765;28;20219;-90
2023/06/15 03:45:14;;;;;;;5.17;4.53;;;;;;;15.41;70.10;98090.16;5053211;28;20212;-90
2023/06/15 03:47:41;;;;;;;4.97;4.47;;;;;;;15.45;68.80;98088.94;5053051;28;20306;-90
2023/06/15 03:50:08;;;;;;;5.67;4.70;;;;;;;15.56;66.84;98077.31;5053343;28;20698;-89
2023/06/15 03:52:35;;;;;;;4.10;3.80;;;;;;;15.60;66.85;98079.56;5053132;28;20250;-90
2023/06/15 03:55:02;;;;;;;5.53;4.77;;;;;;;15.60;68.29;98089.38;5053317;28;20219;-90
2023/06/15 03:57:29;;;;;;;4.93;4.47;;;;;;;15.64;70.38;98102.28;5053168;28;20204;-90
2023/06/15 03:59:55;;;;;;;5.57;4.90;;;;;;;15.76;68.51;98095.03;5052343;28;20232;-90
2023/06/15 04:02:23;;;;;;;6.53;4.73;;;;;;;15.83;65.50;98082.81;5052819;28;20592;-90
2023/06/15 04:04:52;;;;;;;5.33;4.50;;;;;;;15.88;64.08;98083.25;5052977;28;20219;-90
2023/06/15 04:07:19;;;;;;;4.53;4.13;;;;;;;15.81;64.90;98098.09;5053011;28;20250;-90
2023/06/15 04:09:46;;;;;;;5.20;4.53;;;;;;;15.73;66.09;98105.94;5052216;28;20228;-90
2023/06/15 04:12:12;;;;;;;5.47;4.97;;;;;;;15.73;66.15;98100.59;5053510;28;20588;-90
2023/06/15 04:14:38;;;;;;;5.60;5.00;;;;;;;15.68;67.53;98108.16;5053390;28;20208;-90
2023/06/15 04:17:05;;;;;;;6.17;5.10;;;;;;;15.64;67.70;98106.78;5053335;28;20426;-90
2023/06/15 04:19:33;;;;;;;5.77;4.87;;;;;;;15.56;68.96;98119.94;5052703;28;20235;-90
2023/06/15 04:22:00;;;;;;;5.50;4.97;;;;;;;15.47;70.06;98123.44;5052604;28;20226;-90
2023/06/15 04:24:26;;;;;;;5.33;4.83;;;;;;;15.42;70.84;98128.31;5052946;28;20207;-90
2023/06/15 04:26:53;;;;;;;5.87;5.30;;;;;;;15.43;70.27;98130.84;5052650;28;20227;-90
2023/06/15 04:29:22;;;;;;;5.93;4.53;;;;;;;15.35;72.86;98149.34;5051978;28;20243;-90
2023/06/15 04:31:54;;;;;;;5.83;5.23;;;;;;;15.35;74.29;98151.13;5052657;28;20689;-90
2023/06/15 04:34:22;;;;;;;5.27;4.77;;;;;;;15.33;75.64;98150.44;5052727;28;20318;-90
2023/06/15 04:36:50;;;;;;;5.87;4.97;;;;;;;15.36;73.25;98152.81;5052518;28;20593;-90
2023/06/15 04:39:16;;;;;;;5.03;4.63;;;;;;;15.29;72.46;98149.84;5051404;28;20235;-90
2023/06/15 04:41:43;;;;;;;5.17;4.67;;;;;;;15.29;73.78;98154.31;5052620;28;20712;-90
2023/06/15 04:44:09;;;;;;;5.67;5.10;;;;;;;15.35;73.11;98152.00;5052643;28;20551;-90
2023/06/15 04:46:39;;;;;;;6.27;4.70;;;;;;;15.55;69.47;98140.41;5052144;28;20682;-90
2023/06/15 04:49:06;;;;;;;5.70;5.13;;;;;;;15.70;69.14;98139.03;5052095;28;20310;-90
2023/06/15 04:51:33;;;;;;;5.20;4.70;;;;;;;15.75;70.00;98141.28;5052056;28;20203;-90
2023/06/15 04:54:02;;;;;;;6.57;5.37;;;;;;;15.81;69.72;98146.91;5052094;28;20728;-90
2023/06/15 04:56:29;;;;;;;5.77;5.07;;;;;;;15.82;69.25;98143.25;5051996;28;20712;-90
2023/06/15 04:58:55;;;;;;;5.67;5.00;;;;;;;16.02;68.07;98140.47;5052167;28;20215;-90
2023/06/15 05:01:22;;;;;;;5.97;5.37;;;;;;;16.33;67.51;98144.69;5051674;28;20208;-89
2023/06/15 05:03:48;;;;;;;6.97;5.23;;;;;;;16.74;65.90;98139.06;5052188;28;20203;-90
2023/06/15 05:06:15;;;;;;;5.30;4.80;;;;;;;17.32;64.33;98134.38;5051960;28;20208;-90
2023/06/15 05:08:42;;;;;;;5.67;4.83;;;;;;;17.90;60.84;98109.00;5051970;28;20655;-90
2023/06/15 05:11:10;;;;;;;5.63;5.13;;;;;;;18.35;59.90;98115.97;5051276;28;20244;-90
2023/06/15 05:13:36;;;;;;;5.53;4.90;;;;;;;18.77;58.07;98106.25;5051653;28;20262;-90
2023/06/15 05:16:03;;;;;;;5.23;4.73;;;;;;;19.10;57.07;98105.47;5051993;28;20591;-90
2023/06/15 05:18:29;;;;;;;5.47;4.77;;;;;;;19.42;55.97;98097.59;5051138;28;20219;-90
2023/06/15 05:20:56;;;;;;;6.03;4.97;;;;;;;19.76;54.53;98103.72;5051033;28;20228;-90
2023/06/15 05:23:22;;;;;;;7.47;4.77;;;;;;;20.20;54.49;98102.53;5051735;28;20207;-90
2023/06/15 05:25:49;;;;;;;6.97;4.87;;;;;;;20.56;54.49;98109.25;5051865;28;20215;-86
2023/06/15 05:28:19;;;;;;;5.37;4.90;;;;;;;20.90;54.42;98109.09;5051845;28;20238;-78
2023/06/15 05:30:45;;;;;;;6.27;5.03;;;;;;;21.08;53.50;98107.84;5051276;28;20236;-78
2023/06/15 05:33:12;;;;;;;5.23;4.73;;;;;;;21.39;52.93;98105.25;5051408;28;20775;-77
2023/06/15 05:35:39;;;;;;;4.80;4.40;;;;;;;21.53;51.82;98096.44;5051182;28;20208;-78
2023/06/15 05:38:05;;;;;;;9.07;5.60;;;;;;;21.78;51.46;98106.09;5051256;28;20211;-78
2023/06/15 05:40:32;;;;;;;6.70;4.70;;;;;;;22.02;50.78;98097.88;5050583;28;20240;-80
2023/06/15 05:42:58;;;;;;;5.30;4.90;;;;;;;22.13;49.82;98092.91;5051906;28;20614;-89
2023/06/15 05:45:26;;;;;;;5.43;4.90;;;;;;;22.26;49.83;98095.84;5051793;28;20208;-84
2023/06/15 05:47:55;;;;;;;5.30;4.60;;;;;;;22.47;49.92;98104.13;5051744;28;20212;-86
2023/06/15 05:50:21;;;;;;;5.60;5.10;;;;;;;22.73;49.21;98101.88;5050985;28;20239;-86
2023/06/15 05:52:48;;;;;;;5.80;5.17;;;;;;;22.86;48.76;98094.00;5051427;28;20227;-85
2023/06/15 05:55:14;;;;;;;5.33;4.83;;;;;;;23.08;47.55;98098.50;5051646;28;20212;-83
2023/06/15 05:57:41;;;;;;;5.63;4.60;;;;;;;23.24;46.28;98084.03;5051449;28;20239;-83
2023/06/15 06:00:09;;;;;;;5.70;4.43;;;;;;;23.32;46.52;98089.34;5050910;28;20240;-83
2023/06/15 06:02:37;;;;;;;4.83;4.33;;;;;;;23.41;45.17;98077.44;5056031;28;20704;-86
2023/06/15 06:05:04;;;;;;;5.00;4.60;;;;;;;23.39;45.63;98082.16;5056554;28;20204;-84
2023/06/15 06:07:33;;;;;;;5.33;4.90;;;;;;;23.40;44.90;98078.47;5061789;28;20219;-84
2023/06/15 06:09:59;;;;;;;6.43;5.00;;;;;;;23.39;45.00;98077.63;5059679;28;20238;-84
2023/06/15 06:12:26;;;;;;;5.37;4.87;;;;;;;23.45;45.11;98089.50;5050943;28;20212;-86
2023/06/15 06:14:52;;;;;;;6.27;4.60;;;;;;;23.46;45.56;98091.22;5050916;28;20228;-83
2023/06/15 06:17:19;;;;;;;5.40;4.90;;;;;;;23.60;44.89;98088.47;5050771;28;20223;-82
2023/06/15 06:19:51;;;;;;;6.90;5.00;;;;;;;23.28;44.36;98104.22;5048203;28;20232;-81
2023/06/15 06:22:18;;;;;;;5.90;5.30;;;;;;;23.02;44.41;98104.63;5049075;28;20235;-81
2023/06/15 06:24:44;;;;;;;5.50;4.87;;;;;;;22.99;45.99;98115.78;5050498;28;20208;-81
2023/06/15 06:27:11;;;;;;;5.40;4.90;;;;;;;23.19;45.60;98119.66;5050576;28;20208;-81
2023/06/15 06:29:37;;;;;;;6.90;5.50;;;;;;;23.23;45.12;98112.84;5051455;28;20239;-80
2023/06/15 06:32:05;;;;;;;5.50;5.03;;;;;;;23.24;45.25;98119.94;5053953;28;20219;-80
2023/06/15 06:34:33;;;;;;;7.63;4.90;;;;;;;23.59;44.86;98119.19;5054152;28;20231;-78
2023/06/15 06:37:01;;;;;;;6.53;4.80;;;;;;;23.76;45.37;98125.19;5054397;28;20204;-83
2023/06/15 06:39:27;;;;;;;4.97;4.57;;;;;;;24.03;44.35;98119.97;5053551;28;20236;-82
2023/06/15 06:41:53;;;;;;;7.07;4.57;;;;;;;24.13;43.26;98117.81;5054451;28;20227;-82
2023/06/15 06:44:21;;;;;;;4.83;4.33;;;;;;;24.25;42.61;98110.88;5054195;28;20208;-83
2023/06/15 06:46:47;;;;;;;5.37;4.90;;;;;;;24.28;43.27;98101.53;5054054;28;20204;-83
2023/06/15 06:49:14;;;;;;;4.73;4.30;;;;;;;24.23;43.92;98112.09;5053341;28;20228;-83
2023/06/15 06:51:40;;;;;;;5.60;4.50;;;;;;;24.45;43.28;98114.59;5054444;28;20637;-83
2023/06/15 06:54:08;;;;;;;5.10;4.40;;;;;;;24.43;41.97;98111.25;5052908;28;20239;-83
2023/06/15 06:56:34;;;;;;;5.37;4.70;;;;;;;24.42;42.99;98115.00;5053534;28;20208;-83
2023/06/15 06:59:01;;;;;;;5.37;4.87;;;;;;;24.35;41.93;98105.16;5051542;28;20593;-85
2023/06/15 07:01:28;;;;;;;5.30;4.70;;;;;;;24.53;42.88;98113.63;5050474;28;20212;-76
2023/06/15 07:03:55;;;;;;;4.97;4.47;;;;;;;24.51;43.68;98121.94;5051438;28;20200;-76
2023/06/15 07:06:21;;;;;;;5.83;4.47;;;;;;;24.41;43.44;98121.44;5051756;28;20297;-76
2023/06/15 07:08:48;;;;;;;5.43;4.93;;;;;;;24.11;43.30;98129.81;5053599;28;20219;-76
2023/06/15 07:11:16;;;;;;;4.77;4.47;;;;;;;23.78;43.57;98118.59;5052069;28;20208;-76
2023/06/15 07:13:43;;;;;;;5.50;4.77;;;;;;;23.31;44.59;98131.66;5050788;28;20228;-75
2023/06/15 07:16:10;;;;;;;5.43;4.80;;;;;;;22.79;45.16;98124.59;5050606;28;20950;-76
2023/06/15 07:18:36;;;;;;;6.10;5.10;;;;;;;22.11;46.63;98143.41;5050962;28;20208;-76
2023/06/15 07:21:03;;;;;;;5.60;5.10;;;;;;;21.65;47.39;98149.66;5052578;28;20235;-75
2023/06/15 07:23:30;;;;;;;5.97;5.23;;;;;;;21.27;49.45;98161.22;5053287;28;20220;-76
2023/06/15 07:25:56;;;;;;;5.70;5.20;;;;;;;21.16;50.17;98163.44;5050923;28;20549;-75
2023/06/15 07:28:24;;;;;;;5.33;4.93;;;;;;;21.04;50.65;98167.50;5050534;28;20332;-75
2023/06/15 07:30:51;;;;;;;7.07;5.50;;;;;;;21.00;49.84;98160.78;5049968;28;20895;-75
2023/06/15 07:33:17;;;;;;;6.60;4.80;;;;;;;20.98;51.32;98166.31;5051607;28;20212;-75
2023/06/15 07:35:44;;;;;;;6.03;5.30;;;;;;;21.10;52.70;98178.38;5052995;28;20694;-81
2023/06/15 07:38:13;;;;;;;6.23;5.20;;;;;;;21.27;52.70;98182.72;5051856;28;20215;-81
2023/06/15 07:40:39;;;;;;;5.83;5.33;;;;;;;21.34;51.08;98167.59;5049217;28;20254;-81
2023/06/15 07:43:06;;;;;;;6.27;4.90;;;;;;;21.33;51.76;98173.16;5052131;28;20207;-91
2023/06/15 07:45:34;;;;;;;5.53;5.03;;;;;;;21.34;50.83;98158.69;5054501;28;20208;-91
2023/06/15 07:48:00;;;;;;;7.50;5.03;;;;;;;21.44;51.02;98162.84;5054408;28;20208;-92
2023/06/15 07:50:28;;;;;;;6.13;5.53;;;;;;;21.43;49.98;98157.66;5053053;28;20232;-92
2023/06/15 07:52:55;;;;;;;6.33;5.40;;;;;;;21.31;49.19;98146.44;5051650;28;20207;-92
2023/06/15 07:55:22;;;;;;;5.97;5.37;;;;;;;21.30;52.07;98177.03;5050760;28;20337;-92
2023/06/15 07:57:48;;;;;;;5.33;4.83;;;;;;;21.37;49.95;98151.13;5050689;28;20212;-93
2023/06/15 08:00:16;;;;;;;5.40;4.90;;;;;;;21.51;49.35;98155.78;5051646;28;20232;-93
2023/06/15 08:02:44;;;;;;;5.90;4.80;;;;;;;21.48;51.46;98164.19;5053507;28;20204;-93
2023/06/15 08:05:10;;;;;;;5.87;5.33;;;;;;;21.68;50.39;98162.81;5051717;28;20222;-93
2023/06/15 08:07:38;;;;;;;5.33;4.90;;;;;;;21.58;49.01;98148.69;5050803;28;20224;-93
2023/06/15 08:10:05;;;;;;;5.17;4.70;;;;;;;21.65;49.77;98155.03;5050410;28;20705;-94
2023/06/15 08:12:31;;;;;;;6.00;4.87;;;;;;;21.85;48.82;98148.28;5051126;28;20235;-93
2023/06/15 08:14:58;;;;;;;5.30;4.80;;;;;;;21.81;51.11;98165.78;5053545;28;20682;-93
2023/06/15 08:17:25;;;;;;;5.50;5.00;;;;;;;21.81;50.75;98154.16;5053182;28;20208;-93
2023/06/15 08:19:53;;;;;;;5.47;4.97;;;;;;;21.95;51.46;98161.50;5049757;28;20318;-93
2023/06/15 08:22:19;;;;;;;6.87;5.47;;;;;;;22.12;50.29;98169.31;5051130;28;20219;-93
2023/06/15 08:24:46;;;;;;;5.63;4.80;;;;;;;22.16;49.42;98143.72;5050343;28;20311;-92
2023/06/15 08:27:13;;;;;;;5.57;4.97;;;;;;;22.29;49.58;98154.75;5051905;28;20254;-93
2023/06/15 08:29:43;;;;;;;5.80;5.03;;;;;;;22.42;48.36;98133.44;5052599;28;20236;-93
2023/06/15 08:32:13;;;;;;;6.77;5.07;;;;;;;22.44;48.52;98141.38;5051005;28;20216;-93
2023/06/15 08:34:39;;;;;;;5.80;4.93;;;;;;;22.55;50.57;98165.19;5050078;28;20231;-93
2023/06/15 08:37:08;;;;;;;5.67;5.00;;;;;;;22.71;45.75;98124.63;5050116;28;20216;-93
2023/06/15 08:39:35;;;;;;;8.83;5.83;;;;;;;22.54;46.60;98121.25;5069112;22;20244;-78
2023/06/15 08:42:03;;;;;;;5.53;5.03;;;;;;;22.60;48.83;98141.22;5091694;28;20207;-83
2023/06/15 08:44:31;;;;;;;5.30;4.90;;;;;;;22.74;47.76;98135.88;5091882;28;20267;-83
2023/06/15 08:46:58;;;;;;;5.83;4.50;;;;;;;22.84;49.89;98158.03;5088793;28;20253;-83
2023/06/15 08:49:26;;;;;;;6.57;5.20;;;;;;;23.04;49.23;98153.81;5088549;28;20211;-82
2023/06/15 08:51:55;;;;;;;5.30;4.90;;;;;;;23.12;49.16;98147.50;5088481;28;20203;-82
2023/06/15 08:54:23;;;;;;;5.03;4.63;;;;;;;23.22;47.49;98127.38;5090900;28;20230;-81
2023/06/15 08:56:50;;;;;;;5.03;4.53;;;;;;;23.45;45.74;98128.13;5091872;28;20215;-81
2023/06/15 08:59:17;;;;;;;4.77;4.30;;;;;;;23.41;45.93;98121.41;5090983;28;20210;-79
2023/06/15 09:01:44;;;;;;;5.05;4.55;;;;;;;23.38;46.19;98132.59;5090596;28;20440;-80
2023/06/15 09:04:10;;;;;;;5.00;4.60;;;;;;;23.37;46.57;98125.53;5091183;28;20206;-80
2023/06/15 09:06:37;;;;;;;5.27;4.77;;;;;;;23.57;45.69;98118.53;5091660;28;20202;-80
2023/06/15 09:09:04;;;;;;;6.77;5.13;;;;;;;23.60;47.06;98120.84;5091607;28;20211;-80
2023/06/15 09:11:39;;;;;;;4.87;4.47;;;;;;;23.75;48.40;98143.28;5091405;28;20233;-80
2023/06/15 09:14:08;;;;;;;5.07;4.57;;;;;;;23.87;45.17;98106.72;5090634;28;20211;-80
2023/06/15 09:16:35;;;;;;;5.73;5.20;;;;;;;23.99;44.54;98107.88;5089444;28;20215;-78
2023/06/15 09:19:01;;;;;;;5.23;4.53;;;;;;;23.96;44.74;98112.84;5091277;28;20214;-78
2023/06/15 09:21:30;;;;;;;5.03;4.60;;;;;;;23.79;44.39;98104.09;5091338;28;20235;-78
2023/06/15 09:24:04;;;;;;;5.53;4.93;;;;;;;23.85;44.18;98108.72;5091802;28;20203;-80
2023/06/15 09:26:32;;;;;;;4.90;4.40;;;;;;;23.86;44.79;98115.81;5091837;28;20206;-80
2023/06/15 09:29:01;;;;;;;5.33;4.73;;;;;;;23.91;42.17;98085.56;5091430;28;20213;-80
2023/06/15 09:31:31;;;;;;;4.33;4.00;;;;;;;23.86;42.03;98087.97;5090755;28;20245;-80
2023/06/15 09:34:03;;;;;;;5.87;4.37;;;;;;;23.79;43.04;98087.91;5091432;28;20211;-84
2023/06/15 09:36:35;;;;;;;5.10;4.00;;;;;;;23.87;44.56;98103.13;5091276;28;20210;-80
2023/06/15 09:39:03;;;;;;;4.67;4.17;;;;;;;24.20;42.82;98096.28;5090817;28;20210;-78
2023/06/15 09:41:30;;;;;;;5.33;4.10;;;;;;;24.24;42.20;98084.88;5090412;28;20246;-78
2023/06/15 09:44:01;;;;;;;4.70;4.17;;;;;;;24.34;41.94;98088.13;5091084;28;20213;-78
2023/06/15 09:46:29;;;;;;;4.67;4.10;;;;;;;24.56;40.38;98070.84;5091415;28;20210;-78
2023/06/15 09:48:55;;;;;;;4.20;3.80;;;;;;;24.70;41.86;98098.88;5091485;28;20226;-79
2023/06/15 09:51:23;;;;;;;4.63;4.23;;;;;;;24.93;42.27;98100.28;5090723;28;20242;-78
2023/06/15 09:53:52;;;;;;;6.23;4.70;;;;;;;25.12;41.51;98098.78;5091264;28;20763;-78
2023/06/15 09:56:21;;;;;;;4.50;4.10;;;;;;;25.27;41.87;98097.66;5091057;28;20233;-78
2023/06/15 09:58:48;;;;;;;4.77;4.30;;;;;;;25.51;40.77;98086.34;5091293;28;20254;-78
2023/06/15 10:01:19;;;;;;;5.07;4.30;;;;;;;25.63;38.16;98060.38;5090128;28;20715;-78
2023/06/15 10:03:52;;;;;;;5.18;3.88;;;;;;;25.77;37.91;98056.69;5093261;28;20206;-79
2023/06/15 10:06:20;;;;;;;4.20;3.80;;;;;;;25.74;38.53;98073.34;5095185;28;20206;-79
2023/06/15 10:08:51;;;;;;;4.18;3.75;;;;;;;25.38;38.10;98055.66;5095040;28;20206;-80
2023/06/15 10:11:20;;;;;;;4.83;3.90;;;;;;;25.19;39.72;98083.41;5094515;28;20316;-80
2023/06/15 10:13:51;;;;;;;3.63;3.33;;;;;;;25.23;37.29;98053.06;5093646;28;20214;-80
2023/06/15 10:16:21;;;;;;;3.72;3.42;;;;;;;25.51;36.68;98051.16;5092100;28;20575;-78
2023/06/15 10:18:53;;;;;;;4.50;3.53;;;;;;;25.54;35.66;98042.63;5091958;28;20254;-79
2023/06/15 10:21:25;;;;;;;4.10;3.30;;;;;;;25.61;37.15;98053.50;5090960;28;20230;-80
2023/06/15 10:23:55;;;;;;;4.27;3.83;;;;;;;25.57;38.23;98069.31;5093910;28;20207;-79
2023/06/15 10:26:22;;;;;;;4.50;4.10;;;;;;;25.30;41.08;98102.66;5095015;28;20376;-79
2023/06/15 10:28:52;;;;;;;5.63;4.35;;;;;;;25.16;40.54;98095.47;5094492;28;20210;-79
2023/06/15 10:31:30;;;;;;;5.20;4.40;;;;;;;24.83;40.26;98089.00;5094196;28;20233;-78
2023/06/15 10:34:03;;;;;;;4.83;4.43;;;;;;;24.54;42.90;98108.03;5094508;28;20331;-79
2023/06/15 10:36:31;;;;;;;4.90;4.33;;;;;;;24.40;43.14;98110.81;5094479;28;20227;-79
2023/06/15 10:39:03;;;;;;;4.67;4.27;;;;;;;24.56;44.06;98114.09;5094444;28;20199;-79
2023/06/15 10:41:30;;;;;;;5.13;4.10;;;;;;;24.71;41.00;98087.88;5093810;28;20246;-79
2023/06/15 10:43:58;;;;;;;4.53;4.13;;;;;;;25.01;39.90;98073.13;5093889;28;20704;-79
2023/06/15 10:46:29;;;;;;;4.20;3.80;;;;;;;25.27;39.11;98065.19;5094271;28;20203;-79
2023/06/15 10:49:04;;;;;;;4.30;3.93;;;;;;;25.25;38.80;98074.53;5094288;28;20206;-79
2023/06/15 10:51:33;;;;;;;4.37;3.70;;;;;;;25.27;38.97;98080.59;5093500;28;20736;-79
2023/06/15 10:54:03;;;;;;;5.30;3.77;;;;;;;25.29;38.04;98063.13;5094269;28;20214;-79
2023/06/15 10:56:30;;;;;;;4.10;3.65;;;;;;;25.37;39.48;98087.28;5094022;28;20283;-79
2023/06/15 10:58:58;;;;;;;4.17;3.77;;;;;;;25.30;38.09;98074.78;5093799;28;20570;-79
2023/06/15 11:01:26;;;;;;;4.35;3.95;;;;;;;25.16;36.59;98049.50;5093307;28;20222;-79
2023/06/15 11:03:54;;;;;;;4.47;3.90;;;;;;;25.02;36.42;98045.03;5093943;28;20222;-79
2023/06/15 11:06:22;;;;;;;4.38;3.97;;;;;;;25.09;36.33;98040.50;5093939;28;20206;-79
2023/06/15 11:08:51;;;;;;;4.20;3.80;;;;;;;25.06;38.20;98067.13;5093839;28;20219;-79
2023/06/15 11:11:20;;;;;;;4.37;3.97;;;;;;;25.16;39.10;98079.25;5092914;28;20776;-79
2023/06/15 11:14:02;;;;;;;4.63;4.07;;;;;;;24.98;39.77;98070.78;5093707;28;20221;-79
2023/06/15 11:16:31;;;;;;;4.20;3.80;;;;;;;25.13;36.96;98052.59;5093109;28;20226;-78
2023/06/15 11:19:20;;;;;;;4.20;3.80;;;;;;;25.28;37.47;98050.63;5093651;28;20211;-79
2023/06/15 11:21:56;;;;;;;6.35;4.00;;;;;;;25.64;39.79;98082.84;5093737;28;20198;-79
2023/06/15 11:24:24;;;;;;;4.63;3.67;;;;;;;25.70;36.85;98055.81;5093957;28;20210;-79
2023/06/15 11:26:52;;;;;;;4.10;3.70;;;;;;;25.51;38.58;98071.97;5093784;28;20214;-79
2023/06/15 11:29:22;;;;;;;4.10;3.80;;;;;;;25.36;38.17;98050.44;5092692;28;20213;-79
2023/06/15 11:31:49;;;;;;;4.00;3.70;;;;;;;25.03;35.50;98024.22;5093025;28;20358;-79
2023/06/15 11:34:17;;;;;;;4.28;3.30;;;;;;;25.19;37.84;98049.09;5093516;28;20233;-79
2023/06/15 11:36:44;;;;;;;4.03;3.63;;;;;;;25.51;39.59;98071.97;5093135;28;20235;-79
2023/06/15 11:39:18;;;;;;;4.25;3.85;;;;;;;25.69;37.62;98048.75;5092568;28;20203;-79